イエローナイフ の空港の天気 - METARとTAF

イエローナイフ空港 ( CYZF / YZF ) - カナダ ノースウエスト準州イエローナイフ
飛行場実況気象(Metar)
観測時間10/16 00:00 MDT (10/16 06:00 UTC)
風向・風速北北東 2m/s
視程10km以上
天気現象
全天の8割程度の雲 雲底高度 550m
全天の8割程度の雲 雲底高度 5790m
気温-5℃
湿度93%
気圧1023.8hPa
METARCYZF 160600Z 02004KT 15SM BKN018 BKN190 M05/M06 A3018 RMK SC5CI1 SLP238
過去の天気等 Google飛行場航空写真 Wunderground天気予報

過去48時間のMETAR

飛行場予報(TAF)
発表時間: 10/15 23:38 MDT (10/16 05:38 UTC)
予報対象時間: 16日0時 MDT ~ 17日0時 MDT
風向・風速北北東 3m/s
視程10km以上
全天の8割程度の雲 雲底高度 610m
16日0時 MDT ~ 16日9時 MDT に一時的に
視程8050m
天気現象弱い雪
全天の8割程度の雲 雲底高度 300m
16日7時 MDT ~ 16日9時 MDT に徐々に
風向・風速東 4m/s
16日9時 MDT から
風向・風速東 4m/s
視程10km以上
少しの雲 雲底高度 760m
16日9時 MDT ~ 16日16時 MDT に一時的に
視程10km以上
天気現象弱い雪
全天の4割程度の雲 雲底高度 210m
全天の8割程度の雲 雲底高度 610m
全天を覆う雲 雲底高度 1830m
16日14時 MDT ~ 16日16時 MDT に徐々に
風向・風速南南東 6m/s
16日16時 MDT から
風向・風速南南東 6m/s
視程10km以上
天気現象弱い雪
全天の4割程度の雲 雲底高度 180m
全天の8割程度の雲 雲底高度 610m
全天を覆う雲 雲底高度 1220m
16日18時 MDT から
風向・風速南東 8m/s
視程6440m
天気現象弱い雪
全天の8割程度の雲 雲底高度 210m
全天を覆う雲 雲底高度 610m
16日22時 MDT から
風向・風速南南東 6m/s
視程10km以上
全天の4割程度の雲 雲底高度 240m
全天の8割程度の雲 雲底高度 610m
TAF CYZF 160538Z 1606/1706 02006KT P6SM BKN020
TEMPO 1606/1615 5SM -SN BKN010
BECMG 1613/1615 09008KT
FM161500 09008KT P6SM FEW025
TEMPO 1615/1622 P6SM -SN SCT007 BKN020 OVC060
BECMG 1620/1622 15012KT
FM162200 15012KT P6SM -SN SCT006 BKN020 OVC040
FM170000 14015KT 4SM -SN BKN007 OVC020
FM170400 15012KT P6SM SCT008 BKN020 RMK NXT FCST BY 161200Z